createdAt,value
2023-02-08T04:00:15.520Z,7.10
2023-02-08T04:02:50.006Z,6.47
2023-02-08T04:05:18.153Z,6.50
2023-02-08T04:07:48.214Z,6.77
2023-02-08T04:10:16.285Z,6.40
2023-02-08T04:13:06.816Z,6.53
2023-02-08T04:15:34.911Z,6.17
2023-02-08T04:18:04.103Z,6.63
2023-02-08T04:20:32.399Z,6.10
2023-02-08T04:23:45.442Z,6.00
2023-02-08T04:26:13.328Z,5.67
2023-02-08T04:28:41.140Z,5.97
2023-02-08T04:31:09.043Z,6.20
2023-02-08T04:33:38.364Z,6.63
2023-02-08T04:36:06.749Z,6.00
2023-02-08T04:38:34.792Z,6.07
2023-02-08T04:41:02.825Z,5.63
2023-02-08T04:43:31.016Z,6.00
2023-02-08T04:45:59.107Z,6.33
2023-02-08T04:48:26.932Z,6.10
2023-02-08T04:50:58.252Z,6.17
2023-02-08T04:53:26.683Z,5.90
2023-02-08T04:55:54.619Z,6.57
2023-02-08T04:58:24.099Z,6.17
2023-02-08T05:00:51.950Z,6.73
2023-02-08T05:03:20.763Z,6.53
2023-02-08T05:05:56.809Z,7.10
2023-02-08T05:08:26.265Z,6.70
2023-02-08T05:10:54.092Z,7.10
2023-02-08T05:13:21.924Z,6.27
2023-02-08T05:15:49.817Z,7.13
2023-02-08T05:18:17.812Z,6.07
2023-02-08T05:20:45.683Z,5.63
2023-02-08T05:23:13.546Z,6.37
2023-02-08T05:25:42.708Z,5.90
2023-02-08T05:28:10.516Z,5.90
2023-02-08T05:30:40.162Z,6.10
2023-02-08T05:33:08.161Z,5.97
2023-02-08T05:35:36.023Z,6.23
2023-02-08T05:38:04.040Z,6.53
2023-02-08T05:40:32.104Z,6.77
2023-02-08T05:43:01.256Z,5.90
2023-02-08T05:45:29.064Z,5.97
2023-02-08T05:47:56.886Z,6.57
2023-02-08T05:50:24.745Z,5.90
2023-02-08T05:52:52.597Z,6.27
2023-02-08T05:55:20.477Z,6.00
2023-02-08T05:57:48.299Z,6.03
2023-02-08T06:00:19.948Z,6.00
2023-02-08T06:02:49.142Z,4.93
2023-02-08T06:05:17.201Z,6.07
2023-02-08T06:07:45.197Z,6.03
2023-02-08T06:10:13.053Z,5.43
2023-02-08T06:12:40.892Z,5.83
2023-02-08T06:15:09.399Z,5.87
2023-02-08T06:17:38.792Z,5.90
2023-02-08T06:20:07.478Z,7.00
2023-02-08T06:22:35.827Z,6.37
2023-02-08T06:25:04.043Z,6.40
2023-02-08T06:27:31.941Z,6.63
2023-02-08T06:29:59.768Z,6.30
2023-02-08T06:32:27.708Z,7.17
2023-02-08T06:34:57.036Z,6.90
2023-02-08T06:37:24.952Z,6.23
2023-02-08T06:39:52.809Z,6.43
2023-02-08T06:42:20.630Z,6.50
2023-02-08T06:44:55.120Z,6.13
2023-02-08T06:47:23.435Z,6.17
2023-02-08T06:49:51.373Z,7.13
2023-02-08T06:52:21.068Z,6.70
2023-02-08T06:54:48.995Z,7.93
2023-02-08T06:57:16.904Z,10.33
2023-02-08T06:59:45.236Z,9.50
2023-02-08T07:02:15.192Z,8.83
2023-02-08T07:04:43.822Z,8.63
2023-02-08T07:07:13.249Z,9.47
2023-02-08T07:09:43.047Z,9.57
2023-02-08T07:12:11.308Z,8.80
2023-02-08T07:14:41.589Z,8.83
2023-02-08T07:17:09.829Z,8.73
2023-02-08T07:19:37.894Z,8.23
2023-02-08T07:22:08.168Z,7.97
2023-02-08T07:24:37.096Z,7.90
2023-02-08T07:27:08.045Z,8.47
2023-02-08T07:29:36.818Z,8.33
2023-02-08T07:32:06.384Z,7.43
2023-02-08T07:34:36.296Z,7.90
2023-02-08T07:37:04.632Z,7.37
2023-02-08T07:39:32.687Z,8.00
2023-02-08T07:42:00.731Z,8.17
2023-02-08T07:44:37.277Z,8.23
2023-02-08T07:47:05.267Z,8.97
2023-02-08T07:49:33.710Z,9.67
2023-02-08T07:52:02.205Z,9.33
2023-02-08T07:54:30.743Z,9.03
2023-02-08T07:56:58.601Z,8.80
2023-02-08T07:59:26.588Z,9.03
2023-02-08T08:01:56.072Z,8.77
2023-02-08T08:04:23.975Z,8.20
2023-02-08T08:06:53.527Z,7.87
2023-02-08T08:09:21.397Z,8.43
2023-02-08T08:11:49.258Z,8.67
2023-02-08T08:14:17.082Z,8.20
2023-02-08T08:16:44.940Z,7.90
2023-02-08T08:19:14.108Z,8.50
2023-02-08T08:21:41.963Z,7.83
2023-02-08T08:24:09.797Z,7.30
2023-02-08T08:26:37.628Z,7.63
2023-02-08T08:29:06.337Z,8.03
2023-02-08T08:31:34.264Z,6.87
2023-02-08T08:34:02.119Z,6.63
2023-02-08T08:36:31.526Z,6.77
2023-02-08T08:38:59.359Z,7.10
2023-02-08T08:41:28.191Z,6.40
2023-02-08T08:43:56.058Z,6.20
2023-02-08T08:46:24.009Z,6.73
2023-02-08T08:48:52.623Z,6.60
2023-02-08T08:51:20.482Z,6.60
2023-02-08T08:53:49.650Z,7.30
2023-02-08T08:56:17.492Z,6.90
2023-02-08T08:58:45.308Z,7.17
2023-02-08T09:01:13.918Z,6.87
2023-02-08T09:03:41.759Z,7.60
2023-02-08T09:06:09.630Z,7.60
2023-02-08T09:08:37.457Z,7.17
2023-02-08T09:11:08.549Z,7.20
2023-02-08T09:13:36.822Z,7.33
2023-02-08T09:16:10.069Z,7.43
2023-02-08T09:18:38.080Z,7.07
2023-02-08T09:21:09.838Z,7.07
2023-02-08T09:23:38.114Z,7.93
2023-02-08T09:26:09.337Z,7.50
2023-02-08T09:28:37.420Z,7.90
2023-02-08T09:31:09.096Z,6.90
2023-02-08T09:33:37.149Z,7.33
2023-02-08T09:36:05.967Z,7.20
2023-02-08T09:38:34.795Z,7.23
2023-02-08T09:41:20.304Z,6.50
2023-02-08T09:43:56.921Z,6.50
2023-02-08T09:46:28.847Z,6.70
2023-02-08T09:49:01.934Z,6.67
2023-02-08T09:51:33.523Z,7.90
2023-02-08T09:54:04.059Z,6.97
2023-02-08T09:56:36.972Z,7.43
2023-02-08T09:59:06.217Z,7.47
2023-02-08T10:01:36.748Z,7.57
2023-02-08T10:04:17.142Z,7.80
2023-02-08T10:06:45.032Z,7.53
2023-02-08T10:09:16.656Z,7.50
2023-02-08T10:11:55.938Z,7.73
2023-02-08T10:14:41.034Z,8.10
2023-02-08T10:17:26.195Z,7.87
2023-02-08T10:20:09.878Z,7.60
2023-02-08T10:22:48.914Z,7.50
2023-02-08T10:25:41.435Z,7.60
2023-02-08T10:28:27.243Z,7.27
2023-02-08T10:31:01.352Z,7.20
2023-02-08T10:33:35.993Z,6.97
2023-02-08T10:36:04.523Z,7.30
2023-02-08T10:38:45.774Z,7.67
2023-02-08T10:41:20.515Z,7.63
2023-02-08T10:43:56.986Z,7.80
2023-02-08T10:46:31.390Z,7.50
2023-02-08T10:49:08.105Z,7.53
2023-02-08T10:51:37.048Z,7.90
2023-02-08T10:54:05.637Z,8.17
2023-02-08T10:56:44.061Z,8.23
2023-02-08T10:59:19.904Z,7.90
2023-02-08T11:01:49.040Z,8.10
2023-02-08T11:04:18.827Z,7.80
2023-02-08T11:06:48.729Z,7.73
2023-02-08T11:09:25.222Z,8.43
2023-02-08T11:11:53.836Z,7.80
2023-02-08T11:14:35.056Z,7.93
2023-02-08T11:17:28.082Z,8.30
2023-02-08T11:19:56.354Z,7.80
2023-02-08T11:22:27.263Z,7.97
2023-02-08T11:24:58.016Z,8.00
2023-02-08T11:27:34.746Z,8.07
2023-02-08T11:30:24.221Z,8.60
2023-02-08T11:33:18.372Z,8.10
2023-02-08T11:36:05.174Z,8.57
2023-02-08T11:38:35.967Z,8.07
2023-02-08T11:41:14.144Z,8.20
2023-02-08T11:43:42.630Z,8.23
2023-02-08T11:46:12.314Z,8.53
2023-02-08T11:48:44.947Z,7.43
2023-02-08T11:51:15.645Z,7.33
2023-02-08T11:53:48.642Z,8.10
2023-02-08T11:56:20.271Z,7.60
2023-02-08T11:58:59.919Z,7.80
2023-02-08T12:01:32.030Z,7.43
2023-02-08T12:04:03.286Z,7.60
2023-02-08T12:07:03.039Z,8.30
2023-02-08T12:09:51.277Z,7.50
2023-02-08T12:12:26.157Z,7.83
2023-02-08T12:15:05.845Z,7.50
2023-02-08T12:17:58.200Z,7.40
2023-02-08T12:20:38.939Z,7.20
2023-02-08T12:23:25.770Z,7.47
2023-02-08T12:26:05.751Z,7.47
2023-02-08T12:28:51.257Z,8.27
2023-02-08T12:31:28.480Z,7.57
2023-02-08T12:34:07.484Z,7.40
2023-02-08T12:37:16.369Z,7.57
2023-02-08T12:40:12.277Z,8.03
2023-02-08T12:42:55.661Z,7.90
2023-02-08T12:45:47.298Z,7.87
2023-02-08T12:48:30.395Z,8.33
2023-02-08T12:51:07.705Z,7.60
2023-02-08T12:53:40.732Z,7.70
2023-02-08T12:56:16.521Z,8.27
2023-02-08T12:58:46.886Z,8.90
2023-02-08T13:01:19.601Z,8.30
2023-02-08T13:03:52.533Z,7.90
2023-02-08T13:06:24.780Z,8.60
2023-02-08T13:08:58.342Z,8.33
2023-02-08T13:11:33.927Z,8.03
2023-02-08T13:14:07.081Z,8.13
2023-02-08T13:16:40.279Z,8.37
2023-02-08T13:19:27.400Z,8.23
2023-02-08T13:21:57.020Z,7.17
2023-02-08T13:24:33.940Z,7.97
2023-02-08T13:27:01.816Z,8.23
2023-02-08T13:29:30.705Z,7.43
2023-02-08T13:32:03.792Z,7.43
2023-02-08T13:34:37.353Z,7.83
2023-02-08T13:37:24.715Z,8.13
2023-02-08T13:40:01.200Z,8.53
2023-02-08T13:42:31.430Z,8.20
2023-02-08T13:45:00.048Z,7.77
2023-02-08T13:47:31.751Z,7.93
2023-02-08T13:50:04.877Z,7.60
2023-02-08T13:52:51.949Z,7.17
2023-02-08T13:55:45.843Z,6.80
2023-02-08T13:58:40.323Z,6.80
2023-02-08T14:01:18.550Z,6.80
2023-02-08T14:04:06.512Z,7.57
2023-02-08T14:06:36.130Z,7.57
2023-02-08T14:09:12.735Z,7.60
2023-02-08T14:11:45.398Z,7.23
2023-02-08T14:14:19.189Z,7.77
2023-02-08T14:16:48.193Z,7.63
2023-02-08T14:19:24.819Z,7.50
2023-02-08T14:22:03.565Z,7.33
2023-02-08T14:24:35.736Z,7.00
2023-02-08T14:27:09.622Z,7.17
2023-02-08T14:29:38.297Z,7.47
2023-02-08T14:32:07.029Z,6.90
2023-02-08T14:34:37.288Z,6.97
2023-02-08T14:37:27.301Z,7.53
2023-02-08T14:40:28.420Z,7.00
2023-02-08T14:42:59.803Z,6.83
2023-02-08T14:45:34.192Z,6.67
2023-02-08T14:48:19.840Z,6.43
2023-02-08T14:50:56.168Z,6.82
2023-02-08T14:53:36.004Z,8.00
2023-02-08T14:56:08.471Z,7.55
2023-02-08T14:58:41.315Z,7.70
2023-02-08T15:01:16.769Z,8.13
2023-02-08T15:03:46.493Z,8.00
2023-02-08T15:06:49.806Z,8.32
2023-02-08T15:09:21.736Z,8.93
2023-02-08T15:11:55.104Z,8.18
2023-02-08T15:14:24.277Z,8.50
2023-02-08T15:16:53.917Z,8.40
2023-02-08T15:19:24.619Z,8.13
2023-02-08T15:21:52.557Z,7.57
2023-02-08T15:24:23.331Z,7.68
2023-02-08T15:26:53.960Z,7.50
2023-02-08T15:29:32.788Z,7.25
2023-02-08T15:32:03.790Z,6.85
2023-02-08T15:34:31.703Z,7.40
2023-02-08T15:36:59.822Z,7.50
2023-02-08T15:39:35.214Z,7.40
2023-02-08T15:42:03.311Z,6.70
2023-02-08T15:44:34.738Z,7.00
2023-02-08T15:47:05.458Z,6.88
2023-02-08T15:49:36.432Z,6.70
2023-02-08T15:52:05.064Z,6.20
2023-02-08T15:54:33.161Z,6.23
2023-02-08T15:57:03.484Z,6.10
2023-02-08T15:59:37.625Z,5.97
2023-02-08T16:02:24.082Z,6.03
2023-02-08T16:04:52.036Z,6.03
2023-02-08T16:07:26.621Z,6.10
2023-02-08T16:09:55.333Z,6.50
2023-02-08T16:12:24.807Z,6.20
2023-02-08T16:14:56.519Z,6.50
2023-02-08T16:17:34.237Z,6.10
2023-02-08T16:20:02.467Z,6.10
2023-02-08T16:22:33.337Z,6.20
2023-02-08T16:25:23.546Z,6.30
2023-02-08T16:27:51.488Z,6.73
2023-02-08T16:30:22.990Z,5.97
2023-02-08T16:32:51.223Z,5.77
2023-02-08T16:35:25.042Z,5.90
2023-02-08T16:37:59.073Z,6.10
2023-02-08T16:40:43.724Z,5.90
2023-02-08T16:43:22.898Z,6.83
2023-02-08T16:46:21.054Z,7.00
2023-02-08T16:48:55.273Z,6.57
2023-02-08T16:51:25.607Z,7.20
2023-02-08T16:53:56.420Z,7.27
2023-02-08T16:56:24.701Z,7.33
2023-02-08T16:58:52.573Z,7.23
2023-02-08T17:01:23.909Z,7.40
2023-02-08T17:03:52.881Z,7.20
2023-02-08T17:06:29.625Z,7.63
2023-02-08T17:08:58.957Z,6.80
2023-02-08T17:11:27.196Z,7.47
2023-02-08T17:13:55.577Z,7.97
2023-02-08T17:16:26.374Z,8.07
2023-02-08T17:18:55.177Z,8.63
2023-02-08T17:21:23.300Z,7.40
2023-02-08T17:23:51.295Z,6.80
2023-02-08T17:26:22.978Z,8.93
2023-02-08T17:28:51.381Z,8.00
2023-02-08T17:31:19.576Z,7.80
2023-02-08T17:33:50.147Z,8.00
2023-02-08T17:36:18.641Z,7.37
2023-02-08T17:38:47.890Z,6.50
2023-02-08T17:41:17.406Z,5.70
2023-02-08T17:43:45.808Z,6.10
2023-02-08T17:46:17.772Z,6.43
2023-02-08T17:48:48.257Z,6.43
2023-02-08T17:51:20.030Z,5.17
2023-02-08T17:53:48.302Z,5.57
2023-02-08T17:56:18.046Z,6.97
2023-02-08T17:58:47.718Z,6.30
2023-02-08T18:01:20.522Z,6.17
2023-02-08T18:03:50.437Z,6.57
2023-02-08T18:06:20.675Z,8.67
2023-02-08T18:08:48.608Z,9.50
2023-02-08T18:11:19.705Z,10.27
2023-02-08T18:13:49.727Z,10.00
2023-02-08T18:16:19.237Z,10.23
2023-02-08T18:18:47.349Z,10.70
2023-02-08T18:21:17.126Z,11.50
2023-02-08T18:23:46.834Z,11.33
2023-02-08T18:26:16.919Z,12.67
2023-02-08T18:28:45.184Z,14.50
2023-02-08T18:31:15.103Z,14.17
2023-02-08T18:33:43.991Z,10.23
2023-02-08T18:36:12.828Z,9.77
2023-02-08T18:38:41.268Z,8.90
2023-02-08T18:41:11.830Z,10.63
2023-02-08T18:43:40.644Z,25.87
2023-02-08T18:46:10.639Z,20.30
2023-02-08T18:48:39.013Z,13.73
2023-02-08T18:51:08.862Z,16.37
2023-02-08T18:53:38.596Z,13.53
2023-02-08T18:56:08.602Z,11.43
2023-02-08T18:58:38.060Z,12.77
2023-02-08T19:01:07.331Z,10.07
2023-02-08T19:03:36.092Z,9.60
2023-02-08T19:06:06.171Z,10.50
2023-02-08T19:08:34.985Z,9.50
2023-02-08T19:11:02.803Z,9.10
2023-02-08T19:13:30.636Z,11.33
2023-02-08T19:15:59.802Z,11.23
2023-02-08T19:18:27.646Z,11.60
2023-02-08T19:20:55.468Z,10.77
2023-02-08T19:23:23.316Z,10.03
2023-02-08T19:25:51.200Z,10.27
2023-02-08T19:28:19.172Z,8.97
2023-02-08T19:30:47.051Z,10.00
2023-02-08T19:33:16.221Z,11.20
2023-02-08T19:35:44.330Z,10.77
2023-02-08T19:38:12.422Z,11.10
2023-02-08T19:40:40.240Z,9.50
2023-02-08T19:43:08.098Z,9.40
2023-02-08T19:45:36.664Z,9.80
2023-02-08T19:48:05.073Z,9.13
2023-02-08T19:50:34.235Z,8.40
2023-02-08T19:53:02.124Z,8.30
2023-02-08T19:55:29.944Z,8.27
2023-02-08T19:57:57.777Z,8.07
2023-02-08T20:00:26.291Z,9.73
2023-02-08T20:02:54.157Z,8.77
2023-02-08T20:05:21.955Z,8.87
2023-02-08T20:07:51.069Z,8.93
2023-02-08T20:10:18.947Z,8.27
2023-02-08T20:12:46.761Z,8.50
2023-02-08T20:15:14.559Z,8.83
2023-02-08T20:17:42.403Z,8.90
2023-02-08T20:20:11.330Z,8.30
2023-02-08T20:22:39.144Z,9.10
2023-02-08T20:25:09.063Z,9.80
2023-02-08T20:27:36.900Z,11.83
2023-02-08T20:30:05.625Z,12.00
2023-02-08T20:32:33.478Z,11.27
2023-02-08T20:35:01.380Z,11.23
2023-02-08T20:37:29.272Z,12.73
2023-02-08T20:39:57.141Z,12.73
2023-02-08T20:42:26.381Z,12.53
2023-02-08T20:44:54.346Z,11.97
2023-02-08T20:47:22.250Z,13.80
2023-02-08T20:49:50.543Z,12.80
2023-02-08T20:52:18.681Z,13.50
2023-02-08T20:54:47.718Z,11.93
2023-02-08T20:57:17.956Z,12.27
2023-02-08T20:59:47.223Z,13.23
2023-02-08T21:02:18.954Z,12.90
2023-02-08T21:04:46.831Z,13.10
2023-02-08T21:07:16.821Z,12.80
2023-02-08T21:09:45.310Z,13.73
2023-02-08T21:12:13.390Z,13.27
2023-02-08T21:14:43.038Z,11.30
2023-02-08T21:17:12.270Z,10.83
2023-02-08T21:19:40.479Z,12.10
2023-02-08T21:22:08.300Z,14.13
2023-02-08T21:24:36.194Z,10.77
2023-02-08T21:27:04.009Z,11.87
2023-02-08T21:29:32.570Z,12.33
2023-02-08T21:32:01.073Z,11.67
2023-02-08T21:34:30.554Z,13.03
2023-02-08T21:36:58.443Z,13.10
2023-02-08T21:39:26.357Z,14.10
2023-02-08T21:41:55.342Z,12.00
2023-02-08T21:44:23.363Z,10.83
2023-02-08T21:46:51.311Z,10.40
2023-02-08T21:49:37.065Z,8.13
2023-02-08T21:52:24.198Z,8.17
2023-02-08T21:54:53.568Z,7.50
2023-02-08T21:57:23.472Z,7.80
2023-02-08T21:59:53.188Z,7.67
2023-02-08T22:02:24.648Z,7.67
2023-02-08T22:05:11.484Z,7.50
2023-02-08T22:07:45.807Z,7.37
2023-02-08T22:10:15.395Z,8.97
2023-02-08T22:12:43.260Z,7.87
2023-02-08T22:15:13.143Z,8.10
2023-02-08T22:17:41.361Z,8.67
2023-02-08T22:20:10.609Z,8.23
2023-02-08T22:22:39.048Z,8.97
2023-02-08T22:25:09.578Z,9.07
2023-02-08T22:27:38.977Z,9.33
2023-02-08T22:30:07.640Z,9.40
2023-02-08T22:32:35.667Z,8.93
2023-02-08T22:35:03.602Z,9.47
2023-02-08T22:37:33.877Z,9.70
2023-02-08T22:40:01.990Z,9.47
2023-02-08T22:42:31.266Z,9.60
2023-02-08T22:44:59.232Z,9.33
2023-02-08T22:47:27.082Z,9.23
2023-02-08T22:49:57.546Z,9.23
2023-02-08T22:52:25.778Z,9.17
2023-02-08T22:54:54.561Z,8.97
2023-02-08T22:57:22.603Z,9.70
2023-02-08T22:59:51.922Z,8.73
